WY672 / A4O-DA 7700 Squawk Report (12th of November, 2018)

Aircraft A332 Reg No. A4O-DA Age 9 years old
Model A330 Jet engines 2 First flight 13-08-09
Registered 15-09-09 Rollout 08-09 Delivered 15-09-09
Construction No. 1038 Line No. N/A Series 243
ADSHEX 70C0A4 Airline name Oman Air Owner AWAS Leasing
Airfield based Muscat-Seeb Int'l~ ~A4O First tracked 2011-04-01 15:35:03

Flight history for A4O-DA

Route Flight No Date Playback
Franz Josef Strauss (MUC) - Muscat International (MCT) WY124 2018-12-13 03:36:00
Muscat International (MCT) - Franz Josef Strauss (MUC) WY123 2018-12-12 19:41:00
Kuala Lumpur Intl (KUL) - Muscat International (MCT) WY822 2018-12-12 11:26:00
Muscat International (MCT) - Kuala Lumpur Intl (KUL) WY821 2018-12-12 03:08:00
King Abdulaziz Intl (JED) - Muscat International (MCT) WY690 2018-12-11 19:10:00
Muscat International (MCT) - King Abdulaziz Intl (JED) WY689 2018-12-11 11:35:00
Allama Iqbal Intl (LHE) - Muscat International (MCT) WY344 2018-12-10 13:03:00
Muscat International (MCT) - Allama Iqbal Intl (LHE) WY343 2018-12-10 07:54:00
King Abdulaziz Intl (JED) - Muscat International (MCT) WY676 2018-12-09 19:16:00
Muscat International (MCT) - King Abdulaziz Intl (JED) WY675 2018-12-09 17:24:00
King Abdulaziz Intl (JED) - Muscat International (MCT) WY672 2018-12-09 11:08:00
Muscat International (MCT) - King Abdulaziz Intl (JED) WY671 2018-12-09 06:07:00
King Abdulaziz Intl (JED) - Muscat International (MCT) WY676 2018-12-08 22:29:00
Muscat International (MCT) - King Abdulaziz Intl (JED) WY675 2018-12-08 17:27:00
Baiyun Intl (CAN) - Muscat International (MCT) WY852 2018-12-08 07:22:00
Muscat International (MCT) - Baiyun Intl (CAN) WY851 2018-12-07 23:03:00
King Abdulaziz Intl (JED) - Muscat International (MCT) WY674 2018-12-07 06:26:00
Muscat International (MCT) - King Abdulaziz Intl (JED) WY673 2018-12-06 20:24:00
Islamabad International Airport (ISB) - Muscat International (MCT) WY348 2018-12-06 12:51:00
Muscat International (MCT) - Islamabad International Airport (ISB) WY347 2018-12-06 12:37:00
Time Lat Lon Altitude Heading Speed Vertical Rate
2018-11-12 09:50:14 GMT 23.801651 56.677197 18,000 99 391 -1408
2018-11-12 09:49:48 GMT 23.809204 56.627453 18,625 99 397 -1536
2018-11-12 09:49:32 GMT 23.814402 56.592960 19,050 99 397 -1536
2018-11-12 09:49:29 GMT 23.814651 56.591236 19,075 99 397 -1536
2018-11-12 09:47:29 GMT 23.851551 56.345509 20,975 99 419 0
2018-11-12 09:47:13 GMT 23.856216 56.314240 20,975 99 420 0
2018-11-12 09:47:05 GMT 23.859009 56.295471 21,000 99 421 0
2018-11-12 09:46:58 GMT 23.861000 56.281975 21,000 99 421 0
2018-11-12 09:46:54 GMT 23.862671 56.270802 21,000 99 421 0
2018-11-12 09:46:45 GMT 23.865562 56.251450 20,975 99 421 0
2018-11-12 09:46:33 GMT 23.869101 56.227715 21,000 99 421 0
2018-11-12 09:46:21 GMT 23.872732 56.203308 21,000 99 420 64
2018-11-12 09:46:18 GMT 23.873896 56.195377 21,000 99 420 64
2018-11-12 09:46:09 GMT 23.876364 56.178589 20,975 99 421 0
2018-11-12 09:46:00 GMT 23.879242 56.159210 21,000 99 422 0
2018-11-12 09:45:32 GMT 23.887861 56.101269 20,975 99 422 0
2018-11-12 09:45:21 GMT 23.891098 56.079407 21,000 99 422 0
2018-11-12 09:45:11 GMT 23.894333 56.057220 21,000 99 421 0
2018-11-12 09:45:01 GMT 23.897690 56.034801 20,975 99 421 0
2018-11-12 09:44:52 GMT 23.900208 56.017506 20,975 99 421 0
2018-11-12 09:44:39 GMT 23.904373 55.989429 21,000 99 422 0
2018-11-12 09:44:31 GMT 23.906715 55.973682 21,000 99 423 0
2018-11-12 09:44:20 GMT 23.910299 55.948963 21,000 99 425 0
2018-11-12 09:44:11 GMT 23.913025 55.930481 21,000 99 426 0
2018-11-12 09:44:00 GMT 23.916445 55.906677 21,000 99 430 128
2018-11-12 09:43:49 GMT 23.920029 55.882263 20,975 99 435 0
2018-11-12 09:43:39 GMT 23.923187 55.861004 20,975 99 436 0
2018-11-12 09:43:29 GMT 23.926346 55.839233 21,000 99 436 0
2018-11-12 09:43:15 GMT 23.930737 55.809406 21,000 99 436 0
2018-11-12 09:43:08 GMT 23.933157 55.793186 21,000 99 436 0
2018-11-12 09:42:57 GMT 23.936462 55.770229 21,000 98 436 0
2018-11-12 09:42:47 GMT 23.939713 55.747784 21,000 98 437 0
2018-11-12 09:42:35 GMT 23.943100 55.724640 20,975 98 438 0
2018-11-12 09:42:23 GMT 23.947355 55.695141 21,000 98 438 0
2018-11-12 09:42:15 GMT 23.949921 55.677441 21,000 98 438 0
2018-11-12 09:42:05 GMT 23.952803 55.657307 21,000 98 438 0
2018-11-12 09:41:54 GMT 23.956713 55.629532 21,000 98 439 0
2018-11-12 09:41:44 GMT 23.960815 55.601704 21,000 100 438 64
2018-11-12 09:41:30 GMT 23.965977 55.578278 21,000 108 436 64
2018-11-12 09:41:23 GMT 23.970165 55.566669 20,975 115 434 64
2018-11-12 09:41:13 GMT 23.980362 55.546009 20,975 121 432 0
2018-11-12 09:41:01 GMT 23.993317 55.523174 21,000 121 432 0
2018-11-12 09:40:48 GMT 24.006363 55.500183 21,000 121 432 0
2018-11-12 09:40:41 GMT 24.014158 55.486553 21,000 121 432 0
2018-11-12 09:40:30 GMT 24.024765 55.468090 20,975 121 432 0
2018-11-12 09:40:20 GMT 24.036209 55.447998 21,000 121 432 0
2018-11-12 09:40:15 GMT 24.043121 55.435944 20,975 121 432 0
2018-11-12 09:40:09 GMT 24.046738 55.429230 20,975 121 432 0
2018-11-12 09:39:59 GMT 24.057953 55.409496 20,975 121 431 0
2018-11-12 09:39:48 GMT 24.069555 55.389336 20,975 121 431 0
2018-11-12 09:39:38 GMT 24.079788 55.371296 20,975 121 431 0
2018-11-12 09:39:26 GMT 24.093576 55.347050 20,975 121 431 0
2018-11-12 09:39:17 GMT 24.101990 55.332134 20,975 121 431 0
2018-11-12 09:39:06 GMT 24.113663 55.311432 20,975 121 432 0
2018-11-12 09:38:56 GMT 24.123650 55.293880 21,000 121 432 0
2018-11-12 09:38:46 GMT 24.135380 55.273411 21,000 121 432 -64
2018-11-12 09:38:37 GMT 24.145529 55.255581 21,025 121 432 0
2018-11-12 09:38:28 GMT 24.153946 55.240429 21,025 121 433 128
2018-11-12 09:38:25 GMT 24.157866 55.233765 21,000 121 433 256
2018-11-12 09:38:15 GMT 24.170425 55.211536 20,925 121 437 1088
2018-11-12 09:38:04 GMT 24.180588 55.193531 20,725 121 439 1984
2018-11-12 09:37:53 GMT 24.193617 55.170647 20,300 121 441 3136
2018-11-12 09:37:42 GMT 24.204575 55.151012 19,750 121 446 4288
2018-11-12 09:37:30 GMT 24.217163 55.128834 19,025 121 449 3776
2018-11-12 09:37:21 GMT 24.225082 55.114746 18,425 121 440 2816
2018-11-12 09:37:18 GMT 24.229294 55.107525 18,350 121 449 2688
2018-11-12 09:37:08 GMT 24.241566 55.085606 17,875 121 443 2688
2018-11-12 09:36:57 GMT 24.252457 55.066273 17,400 121 439 2944
2018-11-12 09:36:45 GMT 24.265215 55.043835 16,850 121 434 3072
2018-11-12 09:36:34 GMT 24.275757 55.025177 16,325 121 431 2752
2018-11-12 09:36:13 GMT 24.299057 54.983723 15,800 121 421 1344
2018-11-12 09:36:10 GMT 24.301945 54.978539 15,575 121 406 1344
2018-11-12 09:36:00 GMT 24.311050 54.962513 15,375 121 390 1216
2018-11-12 09:35:51 GMT 24.320890 54.945320 15,175 121 379 1216
2018-11-12 09:35:40 GMT 24.330322 54.928589 14,950 121 363 1856
2018-11-12 09:35:28 GMT 24.340349 54.910858 14,525 121 354 3264
2018-11-12 09:35:18 GMT 24.349182 54.895172 14,025 121 350 2944
2018-11-12 09:35:06 GMT 24.358841 54.877777 13,525 121 342 2944
2018-11-12 09:34:55 GMT 24.367537 54.862511 12,950 121 336 3840
2018-11-12 09:34:45 GMT 24.377079 54.846340 12,200 124 337 5056
2018-11-12 09:34:33 GMT 24.387089 54.830692 11,275 125 343 4096
2018-11-12 09:34:22 GMT 24.397705 54.814861 10,675 126 337 1984
2018-11-12 09:34:12 GMT 24.407152 54.800842 10,325 126 322 1984
2018-11-12 09:34:02 GMT 24.416742 54.786488 9,950 126 309 2560
2018-11-12 09:33:51 GMT 24.426544 54.771931 9,475 126 297 3584
2018-11-12 09:33:40 GMT 24.434875 54.759472 8,800 126 294 3776
2018-11-12 09:33:29 GMT 24.444214 54.745586 8,150 126 289 3456
2018-11-12 09:33:13 GMT 24.458817 54.723766 7,050 126 281 3712
2018-11-12 09:33:06 GMT 24.461380 54.719898 6,875 126 280 3648
2018-11-12 09:32:55 GMT 24.469532 54.708340 6,250 128 274 3776
2018-11-12 09:32:45 GMT 24.478331 54.696110 5,575 129 270 4288
2018-11-12 09:32:41 GMT 24.484131 54.688465 5,025 129 271 3776
2018-11-12 09:32:34 GMT 24.486603 54.685059 4,850 129 270 3520
2018-11-12 09:32:23 GMT 24.495556 54.672478 4,275 122 261 1920
2018-11-12 09:32:12 GMT 24.500908 54.661491 4,000 107 244 1088
2018-11-12 09:32:06 GMT 24.503357 54.649456 3,775 95 222 1152
2018-11-12 09:31:59 GMT 24.503515 54.647186 3,750 92 218 1088
2018-11-12 09:31:49 GMT 24.502258 54.635788 3,575 65 191 832
2018-11-12 09:31:39 GMT 24.497177 54.627483 3,400 34 168 960
2018-11-12 09:31:36 GMT 24.492050 54.624279 3,275 14 155 1728
2018-11-12 09:31:27 GMT 24.489178 54.623558 3,175 0 152 2240
2018-11-12 09:31:16 GMT 24.482208 54.624481 2,750 341 152 2752
2018-11-12 09:31:03 GMT 24.471817 54.630230 1,975 317 155 3392
2018-11-12 09:30:53 GMT 24.468521 54.633789 1,625 311 158 3456
2018-11-12 09:30:36 GMT 24.460785 54.644268 725 309 161 3392
We lost coverage of the aircraft here for a total of 118 minutes
2018-11-12 07:32:37 GMT 24.395281 54.736687 1,375 308 149 -832
2018-11-12 07:32:31 GMT 24.392488 54.740467 1,450 308 149 -832
2018-11-12 07:32:20 GMT 24.387878 54.746944 1,600 308 156 -896
2018-11-12 07:31:57 GMT 24.377266 54.761818 1,900 308 176 -832
2018-11-12 07:31:45 GMT 24.370834 54.771015 2,050 308 182 -1024
2018-11-12 07:31:35 GMT 24.366028 54.777832 2,225 308 185 -1216
2018-11-12 07:31:24 GMT 24.359995 54.786125 2,400 308 194 -832
2018-11-12 07:31:19 GMT 24.357992 54.789024 2,450 308 196 -960
2018-11-12 07:31:13 GMT 24.353439 54.795429 2,575 307 200 -1024
2018-11-12 07:31:02 GMT 24.347706 54.804108 2,750 306 209 -960
2018-11-12 07:30:51 GMT 24.341513 54.814262 2,850 298 214 -128
2018-11-12 07:30:40 GMT 24.337830 54.824780 2,950 282 216 -448
2018-11-12 07:30:28 GMT 24.335369 54.837894 3,025 282 221 -512
2018-11-12 07:30:18 GMT 24.333206 54.849194 3,125 283 234 -576
2018-11-12 07:30:07 GMT 24.330505 54.862671 3,200 283 247 -832
2018-11-12 07:29:59 GMT 24.328812 54.870808 3,300 283 254 -1152
2018-11-12 07:29:56 GMT 24.327942 54.875134 3,400 283 255 -1088
2018-11-12 07:29:52 GMT 24.326662 54.881008 3,475 284 255 -1152
2018-11-12 07:29:44 GMT 24.324646 54.890697 3,600 284 255 -1088
2018-11-12 07:29:40 GMT 24.323410 54.896240 3,675 284 253 -1152
2018-11-12 07:29:34 GMT 24.321869 54.902775 3,800 285 250 -832
2018-11-12 07:29:22 GMT 24.318604 54.916943 3,950 285 249 -832
2018-11-12 07:29:12 GMT 24.315536 54.930267 4,100 284 248 -896
2018-11-12 07:29:00 GMT 24.312561 54.943542 4,300 284 247 -1472
2018-11-12 07:28:49 GMT 24.309540 54.956921 4,550 284 243 -1472
2018-11-12 07:28:37 GMT 24.306320 54.972267 4,875 283 242 -1152
2018-11-12 07:28:02 GMT 24.298050 55.014648 6,225 282 256 -2688
2018-11-12 07:27:56 GMT 24.296631 55.021770 6,500 282 256 -1920
2018-11-12 07:27:53 GMT 24.295612 55.027306 6,600 283 258 -640
2018-11-12 07:27:50 GMT 24.294754 55.031384 6,625 284 262 -512
2018-11-12 07:27:44 GMT 24.292786 55.039722 6,700 291 262 -1088
2018-11-12 07:27:32 GMT 24.286396 55.052853 6,875 311 265 -1152
2018-11-12 07:27:22 GMT 24.276154 55.062855 7,050 334 278 -1088
2018-11-12 07:27:10 GMT 24.263489 55.068562 7,250 351 295 -1024
2018-11-12 07:27:04 GMT 24.254135 55.069798 7,350 0 307 -1216
2018-11-12 07:27:00 GMT 24.247147 55.069477 7,450 8 316 -960
2018-11-12 07:26:52 GMT 24.235840 55.066833 7,575 16 325 -1024
2018-11-12 07:26:48 GMT 24.230860 55.064720 7,650 27 340 -1600
2018-11-12 07:26:38 GMT 24.216843 55.055035 8,000 41 357 -2368
2018-11-12 07:26:26 GMT 24.203430 55.040180 8,600 48 364 -4032
2018-11-12 07:26:20 GMT 24.198412 55.034042 8,925 48 367 -3776
2018-11-12 07:26:16 GMT 24.191986 55.025990 9,275 49 372 -3904
2018-11-12 07:26:05 GMT 24.179186 55.009632 10,025 50 375 -5120
2018-11-12 07:25:59 GMT 24.173309 55.001678 10,525 50 376 -5056
2018-11-12 07:25:50 GMT 24.163010 54.988354 11,225 50 377 -4928
2018-11-12 07:25:41 GMT 24.152069 54.973858 11,875 50 384 -3968
2018-11-12 07:25:27 GMT 24.130539 54.945839 13,025 49 410 -4032
2018-11-12 07:25:10 GMT 24.116135 54.927265 13,775 49 414 -4992
2018-11-12 07:24:57 GMT 24.099257 54.905781 14,850 50 418 -5888
2018-11-12 07:24:49 GMT 24.090782 54.895000 15,400 50 418 -5696
2018-11-12 07:24:39 GMT 24.071138 54.869297 16,900 50 419 -5184
2018-11-12 07:24:23 GMT 24.051308 54.843231 18,175 50 427 -5056
2018-11-12 07:24:15 GMT 24.046465 54.837013 18,475 50 428 -4992
2018-11-12 07:24:07 GMT 24.038086 54.825924 19,525 50 441 -4160
2018-11-12 07:23:56 GMT 24.024948 54.808655 19,675 50 442 -4160
2018-11-12 07:23:48 GMT 24.007547 54.785503 20,525 50 454 -4032
2018-11-12 07:23:33 GMT 23.992512 54.765759 21,225 50 465 -3904
2018-11-12 07:23:30 GMT 23.988190 54.760132 21,400 49 470 -4096
2018-11-12 07:23:24 GMT 23.981293 54.751301 24,050 49 478 -5248
2018-11-12 07:23:18 GMT 23.971796 54.739017 22,225 49 478 -5184
2018-11-12 07:23:13 GMT 23.965233 54.730778 22,575 49 482 -5440
2018-11-12 07:23:04 GMT 23.952118 54.714252 23,425 49 483 -6720
2018-11-12 07:22:57 GMT 23.940187 54.699062 24,275 50 484 -5696
2018-11-12 07:22:53 GMT 23.935410 54.692841 24,625 49 481 -6720
2018-11-12 07:22:43 GMT 23.922272 54.675854 25,575 50 487 -4800
2018-11-12 07:22:33 GMT 23.906250 54.654541 26,250 50 503 -3264
2018-11-12 07:22:24 GMT 23.892059 54.635468 26,850 50 512 -5952
2018-11-12 07:22:13 GMT 23.875076 54.612782 27,975 50 514 -6016
2018-11-12 07:22:01 GMT 23.857590 54.589691 28,850 50 520 -4928
2018-11-12 07:21:52 GMT 23.843445 54.570923 29,700 49 527 -5632
2018-11-12 07:21:41 GMT 23.826878 54.549450 30,625 50 528 -5760
2018-11-12 07:21:24 GMT 23.799366 54.513485 32,150 50 533 -5440
2018-11-12 07:21:19 GMT 23.791452 54.503174 32,575 50 535 -4800
2018-11-12 07:21:08 GMT 23.774181 54.480579 33,425 50 533 -4992
2018-11-12 07:20:56 GMT 23.754862 54.455341 34,450 50 524 -5952
2018-11-12 07:20:46 GMT 23.739546 54.434872 35,525 51 515 -6464
2018-11-12 07:20:35 GMT 23.723648 54.413044 36,550 51 513 -5760
2018-11-12 07:20:23 GMT 23.706913 54.390617 37,550 51 515 -3968
2018-11-12 07:20:13 GMT 23.690323 54.367931 38,175 51 515 -2944
2018-11-12 07:20:01 GMT 23.671875 54.342499 38,675 51 517 -1664
2018-11-12 07:19:48 GMT 23.653471 54.318375 38,950 49 517 -320
2018-11-12 07:19:40 GMT 23.639603 54.301300 39,000 47 518 0
2018-11-12 07:19:26 GMT 23.617538 54.275513 39,000 47 517 0
2018-11-12 07:19:16 GMT 23.601845 54.257019 39,000 47 517 0
2018-11-12 07:19:06 GMT 23.564928 54.213745 39,000 47 516 0
2018-11-12 07:18:53 GMT 23.564928 54.213745 39,000 47 517 0
2018-11-12 07:18:43 GMT 23.548462 54.194641 39,000 47 517 0
2018-11-12 07:18:32 GMT 23.527084 54.169540 39,000 47 516 0
2018-11-12 07:18:02 GMT 23.481354 54.116203 39,000 47 515 0
2018-11-12 07:17:58 GMT 23.474943 54.108631 39,000 47 515 0
2018-11-12 07:17:55 GMT 23.470734 54.103722 39,000 47 515 0
2018-11-12 07:17:47 GMT 23.456415 54.086712 39,000 47 515 0
2018-11-12 07:17:36 GMT 23.438540 54.066162 39,000 46 515 0
2018-11-12 07:17:25 GMT 23.420517 54.045841 39,000 44 512 0
2018-11-12 07:16:52 GMT 23.356934 53.995605 39,000 30 499 0
2018-11-12 07:16:41 GMT 23.335892 53.982239 39,000 30 499 0
2018-11-12 07:16:34 GMT 23.323416 53.974354 38,975 30 499 -64
2018-11-12 07:16:30 GMT 23.312895 53.967693 38,975 30 499 -64
2018-11-12 07:16:22 GMT 23.302231 53.961098 39,000 30 498 0
2018-11-12 07:16:18 GMT 23.291574 53.954365 39,000 30 499 0
2018-11-12 07:16:06 GMT 23.266109 53.938190 39,000 30 499 0
2018-11-12 07:15:45 GMT 23.223188 53.911182 39,000 30 500 0
2018-11-12 07:15:34 GMT 23.202850 53.898376 39,000 30 500 0
2018-11-12 07:15:23 GMT 23.179756 53.883667 39,000 30 500 0
2018-11-12 07:15:09 GMT 23.152617 53.866528 39,000 30 500 0
2018-11-12 07:14:58 GMT 23.130318 53.852692 39,000 30 500 0
2018-11-12 07:14:45 GMT 23.105692 53.837128 39,000 30 499 0
2018-11-12 07:14:27 GMT 23.066914 53.812916 39,000 30 499 0
2018-11-12 07:14:14 GMT 23.042404 53.797501 39,000 30 498 0
2018-11-12 07:14:06 GMT 23.025238 53.786568 38,975 30 498 0
We lost coverage of the aircraft here for a total of 13 minutes
2018-11-12 07:01:30 GMT 22.835361 51.929779 41,000 91 529 0
2018-11-12 07:01:24 GMT 22.835735 51.909130 41,000 91 529 0
We lost coverage of the aircraft here for a total of 7 minutes
2018-11-12 06:54:48 GMT 22.882893 50.877483 41,000 94 517 0
2018-11-12 06:54:43 GMT 22.883591 50.867054 41,000 93 517 0
2018-11-12 06:54:34 GMT 22.885174 50.843353 41,000 94 518 0
2018-11-12 06:54:26 GMT 22.886627 50.820755 40,975 94 518 0
2018-11-12 06:54:20 GMT 22.887405 50.808620 40,975 94 518 0
2018-11-12 06:54:12 GMT 22.888824 50.786900 41,000 94 518 0
2018-11-12 06:53:56 GMT 22.891550 50.745747 41,000 94 518 0
2018-11-12 06:53:50 GMT 22.892624 50.729172 41,000 93 518 0
2018-11-12 06:53:40 GMT 22.894272 50.703552 41,000 93 518 0
2018-11-12 06:53:30 GMT 22.895874 50.678883 41,000 93 518 0
2018-11-12 06:53:19 GMT 22.897741 50.650127 41,000 93 518 0
2018-11-12 06:53:09 GMT 22.899399 50.624500 41,000 93 518 0
2018-11-12 06:52:56 GMT 22.901642 50.588795 41,000 93 518 0
2018-11-12 06:52:52 GMT 22.902304 50.578716 41,000 93 518 0
2018-11-12 06:52:48 GMT 22.903143 50.566204 41,000 93 518 0
2018-11-12 06:52:37 GMT 22.904755 50.540604 41,000 93 518 0
2018-11-12 06:52:30 GMT 22.905981 50.521240 41,000 93 518 0
2018-11-12 06:52:26 GMT 22.906542 50.512440 41,000 93 518 0
2018-11-12 06:52:15 GMT 22.908279 50.485275 40,975 93 518 0
2018-11-12 06:52:04 GMT 22.910156 50.455212 40,975 93 518 0
2018-11-12 06:51:54 GMT 22.911709 50.430805 41,000 93 518 0
2018-11-12 06:51:44 GMT 22.913477 50.402729 41,000 93 518 0
2018-11-12 06:51:26 GMT 22.916336 50.358280 41,000 93 518 0
2018-11-12 06:51:21 GMT 22.917206 50.343700 40,975 93 518 0
2018-11-12 06:51:11 GMT 22.918854 50.317482 41,000 93 518 0
2018-11-12 06:50:33 GMT 22.924988 50.219006 41,000 93 518 0
2018-11-12 06:50:28 GMT 22.925812 50.204971 41,000 93 518 0
2018-11-12 06:50:18 GMT 22.927303 50.181427 41,000 93 518 0
2018-11-12 06:50:08 GMT 22.928886 50.155640 41,000 93 518 0
2018-11-12 06:49:57 GMT 22.930561 50.128681 41,000 93 518 0
2018-11-12 06:49:47 GMT 22.932283 50.100708 40,975 93 518 0
2018-11-12 06:49:37 GMT 22.934008 50.072224 41,000 93 518 0
2018-11-12 06:49:26 GMT 22.935543 50.047199 41,000 93 518 0
2018-11-12 06:49:15 GMT 22.937220 50.018921 40,975 93 518 0
2018-11-12 06:49:03 GMT 22.939133 49.986996 40,975 93 518 0
2018-11-12 06:48:53 GMT 22.940689 49.961575 41,000 93 518 0
2018-11-12 06:48:43 GMT 22.942245 49.935406 41,000 93 518 0
2018-11-12 06:48:33 GMT 22.943922 49.907940 40,975 93 518 0
2018-11-12 06:48:22 GMT 22.945541 49.881176 40,975 93 518 0
2018-11-12 06:48:11 GMT 22.947134 49.854023 40,975 93 518 0
2018-11-12 06:48:01 GMT 22.948856 49.824780 41,000 93 518 0
2018-11-12 06:47:50 GMT 22.950394 49.798889 41,000 93 518 0
2018-11-12 06:47:39 GMT 22.952087 49.769814 41,000 93 517 0
2018-11-12 06:47:28 GMT 22.953690 49.743095 40,975 93 517 0
2018-11-12 06:47:19 GMT 22.955292 49.716629 41,000 93 517 0
2018-11-12 06:47:08 GMT 22.956818 49.690502 41,000 93 517 0
2018-11-12 06:46:57 GMT 22.958540 49.661304 41,000 93 517 0
2018-11-12 06:46:46 GMT 22.960121 49.633686 41,000 93 516 0
2018-11-12 06:46:36 GMT 22.961746 49.606117 41,000 93 516 0
2018-11-12 06:46:25 GMT 22.963428 49.577229 40,975 93 516 0
2018-11-12 06:46:15 GMT 22.964859 49.552086 40,975 93 517 0
2018-11-12 06:46:04 GMT 22.966461 49.523319 40,975 93 517 0
2018-11-12 06:45:53 GMT 22.967991 49.497223 41,000 93 517 0
2018-11-12 06:45:42 GMT 22.969711 49.467670 41,000 93 516 0
2018-11-12 06:45:32 GMT 22.971203 49.441730 41,000 93 516 0
2018-11-12 06:45:20 GMT 22.972878 49.411572 40,975 93 517 0
2018-11-12 06:45:10 GMT 22.974321 49.386547 40,975 93 517 0
2018-11-12 06:45:00 GMT 22.975857 49.359180 40,975 93 517 0
2018-11-12 06:44:49 GMT 22.977585 49.328564 41,000 93 517 0
2018-11-12 06:44:39 GMT 22.979004 49.303795 41,000 93 517 0
2018-11-12 06:44:23 GMT 22.981155 49.264793 41,000 93 517 0
2018-11-12 06:44:16 GMT 22.982254 49.245518 41,000 93 517 0
2018-11-12 06:44:07 GMT 22.985773 49.181416 41,000 93 518 0
2018-11-12 06:43:51 GMT 22.985773 49.181416 40,975 93 518 0
2018-11-12 06:43:43 GMT 22.986923 49.160023 40,975 93 518 0
2018-11-12 06:43:35 GMT 22.987961 49.140625 41,000 93 518 0
2018-11-12 06:43:24 GMT 22.989578 49.109135 41,000 93 518 0
2018-11-12 06:43:14 GMT 22.990940 49.081371 41,000 92 518 0
2018-11-12 06:43:11 GMT 22.991173 49.076691 40,975 92 518 0
2018-11-12 06:43:02 GMT 22.992290 49.052380 41,000 92 518 0
2018-11-12 06:42:59 GMT 22.992662 49.044392 41,000 93 518 0
2018-11-12 06:42:52 GMT 22.993698 49.025990 41,000 94 519 0
2018-11-12 06:42:42 GMT 22.995575 49.001770 40,975 95 520 0
2018-11-12 06:42:31 GMT 22.998047 48.971607 40,975 95 520 0
2018-11-12 06:42:21 GMT 23.000015 48.947289 41,000 94 519 0
2018-11-12 06:42:10 GMT 23.002487 48.916927 41,000 94 518 0
2018-11-12 06:41:59 GMT 23.004593 48.890858 41,000 94 518 0
2018-11-12 06:41:47 GMT 23.007187 48.858997 40,975 94 519 0
2018-11-12 06:41:37 GMT 23.009468 48.830719 40,975 95 520 0
2018-11-12 06:41:10 GMT 23.014801 48.764217 40,975 94 519 0
2018-11-12 06:41:06 GMT 23.015705 48.753204 40,975 94 519 0
2018-11-12 06:40:56 GMT 23.017914 48.725414 41,000 94 519 0
2018-11-12 06:40:45 GMT 23.019974 48.699448 41,000 94 519 0
2018-11-12 06:40:34 GMT 23.022308 48.670284 41,000 94 519 0
2018-11-12 06:40:24 GMT 23.024460 48.643665 41,000 94 519 0
2018-11-12 06:40:16 GMT 23.026087 48.623047 41,000 94 518 0
2018-11-12 06:40:13 GMT 23.026646 48.615772 41,000 94 518 0
2018-11-12 06:40:03 GMT 23.028854 48.587135 41,000 94 519 0
2018-11-12 06:39:51 GMT 23.031208 48.557941 40,975 94 519 0
2018-11-12 06:39:41 GMT 23.033302 48.531391 41,000 94 519 0
2018-11-12 06:39:29 GMT 23.035629 48.501842 40,975 94 520 0
2018-11-12 06:39:19 GMT 23.037725 48.475189 41,000 94 520 0
2018-11-12 06:39:08 GMT 23.039820 48.448589 41,000 94 520 0
2018-11-12 06:39:00 GMT 23.041718 48.424438 41,000 94 520 0
2018-11-12 06:38:48 GMT 23.044104 48.393452 40,975 94 520 0
2018-11-12 06:38:35 GMT 23.046570 48.361713 41,000 94 521 0
2018-11-12 06:38:27 GMT 23.048386 48.337963 41,000 94 521 0
2018-11-12 06:38:15 GMT 23.050713 48.308411 41,000 94 521 0
2018-11-12 06:38:05 GMT 23.052795 48.281017 41,000 94 521 0
2018-11-12 06:37:55 GMT 23.054672 48.256496 40,975 94 521 0
2018-11-12 06:37:51 GMT 23.055508 48.245850 40,975 94 522 0
2018-11-12 06:37:44 GMT 23.056961 48.226536 40,975 94 522 0
2018-11-12 06:37:33 GMT 23.059067 48.199417 41,000 94 522 0
2018-11-12 06:37:23 GMT 23.061140 48.172504 41,000 94 522 0
2018-11-12 06:37:13 GMT 23.063370 48.143837 41,000 94 522 0
2018-11-12 06:37:02 GMT 23.065292 48.118271 41,000 94 522 0
2018-11-12 06:36:50 GMT 23.067844 48.084515 41,000 94 522 0
2018-11-12 06:36:41 GMT 23.069427 48.063457 41,000 94 522 0
2018-11-12 06:36:27 GMT 23.072268 48.026173 41,000 94 522 0
2018-11-12 06:36:20 GMT 23.073570 48.008423 41,000 94 522 0
2018-11-12 06:36:08 GMT 23.075897 47.977398 41,000 94 522 0
2018-11-12 06:35:47 GMT 23.079987 47.923363 40,975 94 521 0
2018-11-12 06:35:43 GMT 23.080902 47.910679 41,000 94 521 0
2018-11-12 06:35:32 GMT 23.082882 47.884418 41,000 94 521 0
2018-11-12 06:35:26 GMT 23.084106 47.867832 41,000 94 521 0
2018-11-12 06:35:15 GMT 23.086325 47.838490 41,000 94 521 0
2018-11-12 06:35:11 GMT 23.086945 47.829678 41,000 94 521 0
2018-11-12 06:35:05 GMT 23.088135 47.813351 40,975 94 521 0
2018-11-12 06:34:54 GMT 23.090332 47.783737 40,975 94 521 0
2018-11-12 06:34:43 GMT 23.092377 47.756550 40,975 94 521 0
2018-11-12 06:34:33 GMT 23.094452 47.728004 41,000 94 521 0
2018-11-12 06:34:23 GMT 23.096289 47.703655 41,000 94 521 0
2018-11-12 06:34:12 GMT 23.098335 47.675426 41,000 94 521 0
2018-11-12 06:34:01 GMT 23.100677 47.643661 41,000 94 521 0
2018-11-12 06:33:51 GMT 23.102371 47.620289 40,975 94 521 0
2018-11-12 06:33:40 GMT 23.104523 47.590626 41,000 94 521 0
2018-11-12 06:33:29 GMT 23.106529 47.563374 41,000 94 521 0
2018-11-12 06:33:19 GMT 23.108597 47.534695 41,000 94 521 0
2018-11-12 06:33:08 GMT 23.110485 47.509003 41,000 94 521 0
2018-11-12 06:32:58 GMT 23.112442 47.482113 41,000 94 524 0
2018-11-12 06:32:47 GMT 23.114410 47.454746 40,975 94 522 0
2018-11-12 06:32:36 GMT 23.116562 47.424881 41,000 94 522 0
2018-11-12 06:32:26 GMT 23.118484 47.398067 41,000 94 522 0
2018-11-12 06:32:15 GMT 23.120401 47.371014 41,000 94 522 0
2018-11-12 06:32:05 GMT 23.122498 47.341766 41,000 94 522 0
2018-11-12 06:31:54 GMT 23.124311 47.316132 41,000 94 523 0
2018-11-12 06:31:44 GMT 23.126266 47.288601 40,975 94 523 0
2018-11-12 06:31:33 GMT 23.128128 47.261963 41,000 94 523 0
2018-11-12 06:31:22 GMT 23.130318 47.230885 40,975 94 523 0
2018-11-12 06:31:12 GMT 23.132217 47.204506 41,000 94 523 0
2018-11-12 06:31:02 GMT 23.134089 47.177990 40,975 94 524 0
2018-11-12 06:30:51 GMT 23.136089 47.149303 41,000 94 524 0
2018-11-12 06:30:41 GMT 23.137939 47.122910 41,000 94 524 0
2018-11-12 06:30:30 GMT 23.139954 47.093742 41,000 94 524 0
2018-11-12 06:30:19 GMT 23.141769 47.068024 41,000 94 524 0
2018-11-12 06:30:09 GMT 23.143818 47.038624 41,000 94 524 0
2018-11-12 06:29:58 GMT 23.145725 47.011158 41,000 94 524 0
2018-11-12 06:29:47 GMT 23.147690 46.982384 41,000 94 524 0
2018-11-12 06:29:37 GMT 23.149750 46.952171 41,000 94 524 0
2018-11-12 06:29:29 GMT 23.151489 46.927799 41,000 94 524 0
2018-11-12 06:29:16 GMT 23.153412 46.899136 40,975 94 524 0
2018-11-12 06:29:05 GMT 23.155289 46.872421 41,000 94 525 0
2018-11-12 06:28:54 GMT 23.157257 46.843307 41,000 94 525 0
2018-11-12 06:28:44 GMT 23.159042 46.817039 40,975 94 525 0
2018-11-12 06:28:33 GMT 23.161102 46.787075 41,000 94 525 0
2018-11-12 06:28:22 GMT 23.162857 46.760864 41,000 94 525 0
2018-11-12 06:28:11 GMT 23.164856 46.730995 40,975 94 525 0
2018-11-12 06:28:01 GMT 23.166824 46.702332 40,975 94 525 0
2018-11-12 06:27:50 GMT 23.168537 46.676533 41,000 94 525 0
2018-11-12 06:27:40 GMT 23.170444 46.647797 41,000 94 525 0
2018-11-12 06:27:34 GMT 23.171375 46.633656 40,975 94 525 0
2018-11-12 06:27:29 GMT 23.172226 46.620785 41,000 94 525 0
2018-11-12 06:27:18 GMT 23.174263 46.590168 41,000 94 525 0
2018-11-12 06:27:13 GMT 23.175333 46.575165 41,000 94 525 0
2018-11-12 06:27:07 GMT 23.176031 46.564075 41,000 94 525 0
2018-11-12 06:26:57 GMT 23.178034 46.534069 40,975 94 525 0
2018-11-12 06:26:46 GMT 23.179708 46.509197 41,000 94 526 0
2018-11-12 06:26:41 GMT 23.180687 46.494396 41,000 94 526 0
2018-11-12 06:26:36 GMT 23.181570 46.481274 40,975 94 526 0
2018-11-12 06:26:32 GMT 23.182343 46.469521 41,000 94 526 0
2018-11-12 06:26:25 GMT 23.183620 46.450146 41,000 94 526 0
2018-11-12 06:26:15 GMT 23.185226 46.424976 40,975 94 526 0
2018-11-12 06:26:04 GMT 23.187111 46.396435 41,000 94 526 0
2018-11-12 06:25:54 GMT 23.188740 46.370953 41,000 94 526 0
2018-11-12 06:25:43 GMT 23.190628 46.341579 41,000 94 526 0
2018-11-12 06:25:33 GMT 23.192322 46.315014 40,975 94 526 0
2018-11-12 06:25:22 GMT 23.194153 46.286499 41,000 94 526 0
2018-11-12 06:25:11 GMT 23.196003 46.258850 41,000 93 526 0
2018-11-12 06:25:01 GMT 23.197815 46.230518 41,000 93 526 0
2018-11-12 06:24:50 GMT 23.199783 46.199207 40,975 93 526 0
2018-11-12 06:24:39 GMT 23.201357 46.174061 40,975 93 526 0
2018-11-12 06:24:29 GMT 23.203217 46.144875 41,000 93 526 0
2018-11-12 06:24:16 GMT 23.205267 46.112518 40,975 93 526 0
2018-11-12 06:24:08 GMT 23.208389 46.062180 40,975 93 526 0
2018-11-12 06:23:57 GMT 23.208389 46.062180 40,975 93 526 0
2018-11-12 06:23:44 GMT 23.210854 46.023510 41,000 93 526 0
2018-11-12 06:23:36 GMT 23.211960 46.006046 41,000 93 526 0
2018-11-12 06:23:24 GMT 23.213785 45.976257 41,000 93 526 0
2018-11-12 06:23:15 GMT 23.215439 45.949368 41,000 93 526 0
2018-11-12 06:23:04 GMT 23.217091 45.922901 41,000 93 526 0
2018-11-12 06:22:53 GMT 23.218918 45.893387 41,000 93 526 0
2018-11-12 06:22:43 GMT 23.220535 45.867615 41,000 93 525 0
2018-11-12 06:22:32 GMT 23.222399 45.837452 41,000 93 525 0
2018-11-12 06:22:21 GMT 23.223980 45.811512 40,975 93 525 0
2018-11-12 06:22:11 GMT 23.225739 45.782578 40,975 93 525 0
2018-11-12 06:22:00 GMT 23.227518 45.753632 40,975 93 525 0
2018-11-12 06:21:49 GMT 23.229195 45.726574 40,975 93 526 0
2018-11-12 06:21:39 GMT 23.230911 45.698032 41,000 93 525 0
2018-11-12 06:21:29 GMT 23.232513 45.671814 41,000 93 525 0
2018-11-12 06:21:18 GMT 23.234316 45.641785 41,000 93 525 0
2018-11-12 06:21:07 GMT 23.235897 45.616253 41,000 93 525 0
2018-11-12 06:20:57 GMT 23.237619 45.587261 41,000 93 525 0
2018-11-12 06:20:49 GMT 23.238968 45.564499 41,000 93 525 0
2018-11-12 06:20:45 GMT 23.239334 45.557705 40,975 93 525 0
2018-11-12 06:20:35 GMT 23.240925 45.531158 40,975 93 525 0
2018-11-12 06:20:25 GMT 23.242722 45.500626 41,000 93 525 0
2018-11-12 06:20:14 GMT 23.244184 45.476990 41,000 93 525 0
2018-11-12 06:20:03 GMT 23.245953 45.447186 41,000 93 525 0
2018-11-12 06:19:53 GMT 23.247536 45.420483 41,000 93 525 0
2018-11-12 06:19:42 GMT 23.249222 45.391563 41,000 93 524 0
2018-11-12 06:19:32 GMT 23.250641 45.365795 41,000 93 523 64
2018-11-12 06:19:21 GMT 23.252563 45.336929 41,000 95 523 128
2018-11-12 06:19:11 GMT 23.254984 45.310925 41,000 95 524 0
2018-11-12 06:19:00 GMT 23.257828 45.281151 41,000 95 524 0
2018-11-12 06:18:53 GMT 23.259613 45.262474 41,000 95 524 0
2018-11-12 06:18:50 GMT 23.260620 45.252037 41,000 95 524 0
2018-11-12 06:18:38 GMT 23.263275 45.224422 40,975 95 524 0
2018-11-12 06:18:28 GMT 23.265793 45.197803 40,975 95 524 0
2018-11-12 06:18:24 GMT 23.266903 45.186565 40,975 95 524 0
2018-11-12 06:18:18 GMT 23.268391 45.171001 40,975 95 524 0
2018-11-12 06:18:07 GMT 23.271240 45.141174 40,975 95 524 0
2018-11-12 06:18:01 GMT 23.272934 45.123547 40,975 95 524 0
2018-11-12 06:17:53 GMT 23.274902 45.102272 41,000 95 524 0
2018-11-12 06:17:46 GMT 23.276445 45.086365 41,000 95 524 0
2018-11-12 06:17:35 GMT 23.278959 45.060120 41,000 95 524 0
2018-11-12 06:17:28 GMT 23.280773 45.040180 41,000 95 524 0
2018-11-12 06:17:24 GMT 23.281706 45.030567 41,000 95 524 0
2018-11-12 06:17:14 GMT 23.284515 45.001347 40,975 95 524 0
2018-11-12 06:17:03 GMT 23.286919 44.975281 40,975 95 525 0
2018-11-12 06:16:53 GMT 23.289505 44.947716 41,000 95 525 0
2018-11-12 06:16:42 GMT 23.292086 44.920654 41,000 95 525 0
2018-11-12 06:16:31 GMT 23.294786 44.891663 41,000 95 525 0
2018-11-12 06:16:21 GMT 23.297195 44.865967 41,000 95 526 0
2018-11-12 06:16:10 GMT 23.299953 44.836681 41,000 95 526 0
2018-11-12 06:16:00 GMT 23.302551 44.809139 41,000 95 526 0
2018-11-12 06:15:49 GMT 23.305115 44.781120 41,000 95 526 0
2018-11-12 06:15:39 GMT 23.307680 44.753063 41,000 95 527 0
2018-11-12 06:15:28 GMT 23.310196 44.725441 40,975 95 527 0
2018-11-12 06:15:18 GMT 23.312851 44.696777 41,000 95 527 0
2018-11-12 06:15:07 GMT 23.315363 44.669903 41,000 95 526 0
2018-11-12 06:14:56 GMT 23.318024 44.641048 41,000 95 526 0
2018-11-12 06:14:46 GMT 23.320404 44.615128 40,975 95 526 0
2018-11-12 06:14:34 GMT 23.323277 44.583485 40,975 95 526 0
2018-11-12 06:14:25 GMT 23.325745 44.556732 41,000 95 526 0
2018-11-12 06:14:14 GMT 23.328072 44.530945 41,000 95 526 0
2018-11-12 06:14:02 GMT 23.331003 44.499359 41,000 95 526 0
2018-11-12 06:13:53 GMT 23.333193 44.474842 40,975 95 526 0
2018-11-12 06:13:42 GMT 23.335939 44.444477 40,975 95 526 0
2018-11-12 06:13:32 GMT 23.338173 44.419964 40,975 95 526 0
2018-11-12 06:13:21 GMT 23.340775 44.391357 41,000 95 526 0
2018-11-12 06:13:10 GMT 23.343294 44.363453 41,000 95 526 0
2018-11-12 06:13:00 GMT 23.345715 44.336651 41,000 95 526 0
2018-11-12 06:12:49 GMT 23.348557 44.304565 40,975 95 526 0
2018-11-12 06:12:39 GMT 23.350649 44.281109 41,000 95 526 0
2018-11-12 06:12:28 GMT 23.353363 44.251133 41,000 95 525 0
2018-11-12 06:12:18 GMT 23.355606 44.226162 41,000 95 525 0
2018-11-12 06:12:07 GMT 23.358170 44.197147 41,000 95 525 0
2018-11-12 06:11:56 GMT 23.360611 44.169720 41,000 95 525 0
2018-11-12 06:11:46 GMT 23.363173 44.141388 40,975 95 526 0
2018-11-12 06:11:31 GMT 23.366476 44.104053 40,975 95 526 0
2018-11-12 06:11:25 GMT 23.368057 44.086239 40,975 95 526 0
2018-11-12 06:11:13 GMT 23.371033 44.052280 41,000 95 526 0
2018-11-12 06:11:03 GMT 23.373001 44.029610 41,000 95 526 0
2018-11-12 06:10:53 GMT 23.375507 44.001820 41,000 95 526 0
2018-11-12 06:10:42 GMT 23.377836 43.975170 40,975 95 526 0
2018-11-12 06:10:30 GMT 23.380875 43.940517 40,975 95 527 0
2018-11-12 06:10:20 GMT 23.382935 43.916397 40,975 95 527 0
2018-11-12 06:10:11 GMT 23.385086 43.891727 40,975 95 527 0
2018-11-12 06:10:00 GMT 23.387751 43.861645 41,000 95 527 0
2018-11-12 06:09:49 GMT 23.390171 43.833771 41,000 95 527 0
2018-11-12 06:09:39 GMT 23.392546 43.806610 41,000 95 528 0
2018-11-12 06:09:29 GMT 23.394745 43.781116 41,000 95 528 0
2018-11-12 06:09:18 GMT 23.397308 43.751102 40,975 95 528 0
2018-11-12 06:09:08 GMT 23.399483 43.725636 41,000 95 528 0
2018-11-12 06:08:57 GMT 23.402023 43.696373 41,000 95 528 0
2018-11-12 06:08:46 GMT 23.404449 43.668106 40,975 95 528 0
2018-11-12 06:08:36 GMT 23.406792 43.640850 40,975 95 528 0
2018-11-12 06:08:26 GMT 23.409256 43.611877 40,975 95 528 0

Making use of Plane Finder data

You are free to use the raw flight data, aircraft information and images provided in this report for your own purposes provided the data is correctly attributed to Plane Finder. We ask that you please credit Plane Finder and link to planefinder.net in close proximity to the content.

Optionally one of the following logos (no smaller then 150x24px) can be used and must link to planefinder.net

Embedding the Plane Finder map

You are welcome to embed the Plane Finder playback map on your website to offer visitors a more interactive experience. We suggest using the following HTML code:

<iframe src="//planefinder.net/data/report/WY672-A4O-DA-7700-squawk-2018-11-12/map" width="800" height="600" seamless="seamless"></iframe>

Where our data comes from

Plane Finder has a global network of data feeds and antenna radars that receive data broadcast directly from aircraft. The primary technologies used are ADS-B and MLAT. We also show feeds from the FAA and a FLARM glider feed.

Click here to find out more about the Plane Finder network.

How we collect our data